Airfield :







YOU CAN JOIN US ON...

 
LOGIN :

Register | Disclaimer

   EN    FR    IT 

 









Legend :    VFR   Marginal VFR   IFR   Intensive IFR   Very Intensive IFR
Visi :
Ceiling :
>= 8 km
>= 3000ft
5 to 8 km
1000 to 3000 ft
1500m to 5 km
500 to 1000 ft
800 to 1500m
200 to 500 ft
< 800m
< 200 ft
Symbols :   Thunderstorms  Fog  Heavy snow  Heavy precipitations  Wind > 20 kt






- Airport Elevation : 285 ft
- IATA code : ALB


KALB - Albany International

CURRENT METAR :
  • 281751Z 16006KT 10SM BKN080 OVC100 11/M03 A3012 RMK AO2 SLP203 T01061033 10106 20017 56009

EXPIRED METARs :
  • 281651Z 18009KT 10SM BKN110 OVC200 10/M03 A3014 RMK AO2 SLP207 T01001033
  • 281551Z 00000KT 10SM SCT140 OVC250 08/M02 A3014 RMK AO2 SLP206 T00831017

TAF KALB
Valid from the 28 at 18:00 until the 29 at 18:00 UTC


281739Z 2818/2918 17007KT P6SM VCSH BKN080
FM282100 16006KT 6SM -RA BR OVC035
FM290600 13006KT 3SM RA BR OVC020



MET'MAP, your aeronautical weather chart ! - Copyright ORBIFLY December 2007 - Disclaimer

ORBIFLY MET'MAP TEAM :

Programming & Development : Alexandra Zaïnal
Concept & original design : Baudouin d'Aumeries
Assistance for programming : Marc-Olivier Méhu
Technical & hardware support : Manuel Goepfert

Contact : metmap@orbifly.com




SOURCES & CREDITS :

   NOAA